sensor_id;sensor_type;location;lat;lon;timestamp;temperature;humidity
65419;DHT22;52027;50.658;14.004;2022-10-17T00:01:08;21.78;43.87
65419;DHT22;52027;50.658;14.004;2022-10-17T00:03:35;21.76;43.91
65419;DHT22;52027;50.658;14.004;2022-10-17T00:06:10;21.78;43.85
65419;DHT22;52027;50.658;14.004;2022-10-17T00:08:37;21.78;43.83
65419;DHT22;52027;50.658;14.004;2022-10-17T00:11:16;21.80;43.87
65419;DHT22;52027;50.658;14.004;2022-10-17T00:13:41;21.79;43.84
65419;DHT22;52027;50.658;14.004;2022-10-17T00:16:07;21.82;43.80
65419;DHT22;52027;50.658;14.004;2022-10-17T00:18:32;21.83;43.88
65419;DHT22;52027;50.658;14.004;2022-10-17T00:20:57;21.82;43.85
65419;DHT22;52027;50.658;14.004;2022-10-17T00:23:23;21.82;43.85
65419;DHT22;52027;50.658;14.004;2022-10-17T00:26:00;21.85;43.82
65419;DHT22;52027;50.658;14.004;2022-10-17T00:28:25;21.85;43.79
65419;DHT22;52027;50.658;14.004;2022-10-17T00:31:01;21.85;43.74
65419;DHT22;52027;50.658;14.004;2022-10-17T00:33:28;21.88;43.78
65419;DHT22;52027;50.658;14.004;2022-10-17T00:36:19;21.85;43.77
65419;DHT22;52027;50.658;14.004;2022-10-17T00:38:48;21.86;43.71
65419;DHT22;52027;50.658;14.004;2022-10-17T00:41:16;21.88;43.71
65419;DHT22;52027;50.658;14.004;2022-10-17T00:43:58;21.88;43.77
65419;DHT22;52027;50.658;14.004;2022-10-17T00:46:26;21.89;43.76
65419;DHT22;52027;50.658;14.004;2022-10-17T00:48:54;21.88;43.76
65419;DHT22;52027;50.658;14.004;2022-10-17T00:51:26;21.88;43.73
65419;DHT22;52027;50.658;14.004;2022-10-17T00:53:54;21.90;43.69
65419;DHT22;52027;50.658;14.004;2022-10-17T00:56:20;21.92;43.68
65419;DHT22;52027;50.658;14.004;2022-10-17T00:58:46;21.92;43.64
65419;DHT22;52027;50.658;14.004;2022-10-17T01:01:11;21.90;43.68
65419;DHT22;52027;50.658;14.004;2022-10-17T01:03:37;21.93;43.62
65419;DHT22;52027;50.658;14.004;2022-10-17T01:06:02;21.94;43.69
65419;DHT22;52027;50.658;14.004;2022-10-17T01:08:28;21.93;43.60
65419;DHT22;52027;50.658;14.004;2022-10-17T01:11:16;21.93;43.59
65419;DHT22;52027;50.658;14.004;2022-10-17T01:13:51;21.94;43.63
65419;DHT22;52027;50.658;14.004;2022-10-17T01:19:18;21.93;43.69
65419;DHT22;52027;50.658;14.004;2022-10-17T01:22:17;21.92;43.65
65419;DHT22;52027;50.658;14.004;2022-10-17T01:24:59;21.94;43.71
65419;DHT22;52027;50.658;14.004;2022-10-17T01:38:52;21.93;43.68
65419;DHT22;52027;50.658;14.004;2022-10-17T01:44:31;21.93;43.65
65419;DHT22;52027;50.658;14.004;2022-10-17T01:46:49;21.93;43.68
65419;DHT22;52027;50.658;14.004;2022-10-17T01:49:19;21.92;43.64
65419;DHT22;52027;50.658;14.004;2022-10-17T01:51:50;21.93;43.69
65419;DHT22;52027;50.658;14.004;2022-10-17T01:54:26;21.93;43.61
65419;DHT22;52027;50.658;14.004;2022-10-17T01:56:58;21.96;43.65
65419;DHT22;52027;50.658;14.004;2022-10-17T01:59:34;21.93;43.63
65419;DHT22;52027;50.658;14.004;2022-10-17T02:02:00;21.92;43.67
65419;DHT22;52027;50.658;14.004;2022-10-17T02:04:26;21.97;43.61
65419;DHT22;52027;50.658;14.004;2022-10-17T02:06:52;21.93;43.52
65419;DHT22;52027;50.658;14.004;2022-10-17T02:09:25;21.94;43.60
65419;DHT22;52027;50.658;14.004;2022-10-17T02:17:44;21.97;43.58
65419;DHT22;52027;50.658;14.004;2022-10-17T02:23:15;21.97;43.64
65419;DHT22;52027;50.658;14.004;2022-10-17T02:25:49;21.94;43.57
65419;DHT22;52027;50.658;14.004;2022-10-17T02:31:12;21.96;43.59
65419;DHT22;52027;50.658;14.004;2022-10-17T02:33:43;21.94;43.59
65419;DHT22;52027;50.658;14.004;2022-10-17T02:36:18;21.94;43.58
65419;DHT22;52027;50.658;14.004;2022-10-17T02:38:44;21.93;43.60
65419;DHT22;52027;50.658;14.004;2022-10-17T02:41:13;21.96;43.57
65419;DHT22;52027;50.658;14.004;2022-10-17T02:43:40;21.96;43.44
65419;DHT22;52027;50.658;14.004;2022-10-17T02:46:10;21.96;43.55
65419;DHT22;52027;50.658;14.004;2022-10-17T02:48:40;21.94;43.59
65419;DHT22;52027;50.658;14.004;2022-10-17T02:51:14;21.97;43.58
65419;DHT22;52027;50.658;14.004;2022-10-17T02:54:20;21.94;43.52
65419;DHT22;52027;50.658;14.004;2022-10-17T02:56:58;21.96;43.52
65419;DHT22;52027;50.658;14.004;2022-10-17T02:59:26;21.96;43.58
65419;DHT22;52027;50.658;14.004;2022-10-17T03:01:53;21.96;43.56
65419;DHT22;52027;50.658;14.004;2022-10-17T03:04:19;21.93;43.63
65419;DHT22;52027;50.658;14.004;2022-10-17T03:06:46;21.94;43.59
65419;DHT22;52027;50.658;14.004;2022-10-17T03:09:12;21.96;43.52
65419;DHT22;52027;50.658;14.004;2022-10-17T03:11:37;21.97;43.53
65419;DHT22;52027;50.658;14.004;2022-10-17T03:14:03;21.94;43.54
65419;DHT22;52027;50.658;14.004;2022-10-17T03:16:28;21.94;43.54
65419;DHT22;52027;50.658;14.004;2022-10-17T03:18:53;21.97;43.51
65419;DHT22;52027;50.658;14.004;2022-10-17T03:21:19;21.96;43.48
65419;DHT22;52027;50.658;14.004;2022-10-17T03:23:44;21.99;43.51
65419;DHT22;52027;50.658;14.004;2022-10-17T03:26:09;21.99;43.56
65419;DHT22;52027;50.658;14.004;2022-10-17T03:28:35;21.94;43.56
65419;DHT22;52027;50.658;14.004;2022-10-17T03:31:09;21.94;43.52
65419;DHT22;52027;50.658;14.004;2022-10-17T03:33:35;21.96;43.55
65419;DHT22;52027;50.658;14.004;2022-10-17T03:36:10;21.96;43.56
65419;DHT22;52027;50.658;14.004;2022-10-17T03:38:36;21.97;43.67
65419;DHT22;52027;50.658;14.004;2022-10-17T03:41:02;21.97;43.67
65419;DHT22;52027;50.658;14.004;2022-10-17T03:43:28;21.94;43.71
65419;DHT22;52027;50.658;14.004;2022-10-17T03:45:53;21.97;43.71
65419;DHT22;52027;50.658;14.004;2022-10-17T03:48:19;21.96;43.71
65419;DHT22;52027;50.658;14.004;2022-10-17T03:50:44;22.00;43.81
65419;DHT22;52027;50.658;14.004;2022-10-17T03:53:09;21.99;43.76
65419;DHT22;52027;50.658;14.004;2022-10-17T03:55:36;21.97;43.82
65419;DHT22;52027;50.658;14.004;2022-10-17T03:58:01;21.99;43.78
65419;DHT22;52027;50.658;14.004;2022-10-17T04:00:26;21.97;43.78
65419;DHT22;52027;50.658;14.004;2022-10-17T04:02:52;21.97;43.74
65419;DHT22;52027;50.658;14.004;2022-10-17T04:05:17;21.99;43.78
65419;DHT22;52027;50.658;14.004;2022-10-17T04:07:43;21.97;43.76
65419;DHT22;52027;50.658;14.004;2022-10-17T04:10:08;21.94;43.75
65419;DHT22;52027;50.658;14.004;2022-10-17T04:12:34;21.96;43.72
65419;DHT22;52027;50.658;14.004;2022-10-17T04:15:00;21.96;43.80
65419;DHT22;52027;50.658;14.004;2022-10-17T04:17:25;21.97;43.81
65419;DHT22;52027;50.658;14.004;2022-10-17T04:19:51;21.97;43.83
65419;DHT22;52027;50.658;14.004;2022-10-17T04:22:16;21.97;43.75
65419;DHT22;52027;50.658;14.004;2022-10-17T04:24:41;21.96;43.72
65419;DHT22;52027;50.658;14.004;2022-10-17T04:27:06;21.97;43.74
65419;DHT22;52027;50.658;14.004;2022-10-17T04:29:32;21.99;43.79
65419;DHT22;52027;50.658;14.004;2022-10-17T04:31:57;21.99;43.69
65419;DHT22;52027;50.658;14.004;2022-10-17T04:34:22;21.97;43.83
65419;DHT22;52027;50.658;14.004;2022-10-17T04:36:48;21.99;43.82
65419;DHT22;52027;50.658;14.004;2022-10-17T04:39:13;21.96;43.74
65419;DHT22;52027;50.658;14.004;2022-10-17T04:41:38;22.00;43.89
65419;DHT22;52027;50.658;14.004;2022-10-17T04:44:04;21.96;43.86
65419;DHT22;52027;50.658;14.004;2022-10-17T04:46:29;22.00;43.81
65419;DHT22;52027;50.658;14.004;2022-10-17T04:48:55;22.00;43.81
65419;DHT22;52027;50.658;14.004;2022-10-17T04:51:20;21.99;43.87
65419;DHT22;52027;50.658;14.004;2022-10-17T04:53:46;21.99;43.90
65419;DHT22;52027;50.658;14.004;2022-10-17T04:56:17;21.99;43.89
65419;DHT22;52027;50.658;14.004;2022-10-17T04:58:43;21.99;43.94
65419;DHT22;52027;50.658;14.004;2022-10-17T05:01:20;21.99;43.95
65419;DHT22;52027;50.658;14.004;2022-10-17T05:03:46;21.99;43.96
65419;DHT22;52027;50.658;14.004;2022-10-17T05:06:14;22.00;44.01
65419;DHT22;52027;50.658;14.004;2022-10-17T05:08:43;22.03;44.00
65419;DHT22;52027;50.658;14.004;2022-10-17T05:11:16;22.03;44.00
65419;DHT22;52027;50.658;14.004;2022-10-17T05:13:41;22.03;44.06
65419;DHT22;52027;50.658;14.004;2022-10-17T05:16:07;22.03;44.07
65419;DHT22;52027;50.658;14.004;2022-10-17T05:18:32;22.01;44.07
65419;DHT22;52027;50.658;14.004;2022-10-17T05:20:57;22.04;44.02
65419;DHT22;52027;50.658;14.004;2022-10-17T05:23:23;22.04;44.00
65419;DHT22;52027;50.658;14.004;2022-10-17T05:25:53;22.04;44.11
65419;DHT22;52027;50.658;14.004;2022-10-17T05:28:18;22.04;44.14
65419;DHT22;52027;50.658;14.004;2022-10-17T05:30:44;22.04;44.15
65419;DHT22;52027;50.658;14.004;2022-10-17T05:33:09;22.07;44.14
65419;DHT22;52027;50.658;14.004;2022-10-17T05:35:34;22.07;44.25
65419;DHT22;52027;50.658;14.004;2022-10-17T05:38:00;22.06;44.22
65419;DHT22;52027;50.658;14.004;2022-10-17T05:40:26;22.07;44.43
65419;DHT22;52027;50.658;14.004;2022-10-17T05:42:51;22.04;44.26
65419;DHT22;52027;50.658;14.004;2022-10-17T05:45:17;22.10;44.29
65419;DHT22;52027;50.658;14.004;2022-10-17T05:47:42;22.10;44.26
65419;DHT22;52027;50.658;14.004;2022-10-17T05:50:08;22.11;44.63
65419;DHT22;52027;50.658;14.004;2022-10-17T05:52:37;22.11;44.50
65419;DHT22;52027;50.658;14.004;2022-10-17T05:55:06;22.11;44.59
65419;DHT22;52027;50.658;14.004;2022-10-17T05:57:31;22.11;44.82
65419;DHT22;52027;50.658;14.004;2022-10-17T05:59:56;22.11;45.02
65419;DHT22;52027;50.658;14.004;2022-10-17T06:02:22;22.16;45.14
65419;DHT22;52027;50.658;14.004;2022-10-17T06:04:47;22.17;45.13
65419;DHT22;52027;50.658;14.004;2022-10-17T06:07:14;22.20;45.11
65419;DHT22;52027;50.658;14.004;2022-10-17T06:09:40;22.17;45.23
65419;DHT22;52027;50.658;14.004;2022-10-17T06:12:06;22.20;45.32
65419;DHT22;52027;50.658;14.004;2022-10-17T06:14:32;22.21;45.44
65419;DHT22;52027;50.658;14.004;2022-10-17T06:16:58;22.24;45.27
65419;DHT22;52027;50.658;14.004;2022-10-17T06:19:23;22.24;45.14
65419;DHT22;52027;50.658;14.004;2022-10-17T06:21:48;22.24;45.43
65419;DHT22;52027;50.658;14.004;2022-10-17T06:24:14;22.28;45.28
65419;DHT22;52027;50.658;14.004;2022-10-17T06:26:40;22.31;45.31
65419;DHT22;52027;50.658;14.004;2022-10-17T06:29:09;22.31;45.39
65419;DHT22;52027;50.658;14.004;2022-10-17T06:31:34;22.33;45.16
65419;DHT22;52027;50.658;14.004;2022-10-17T06:34:00;22.31;45.39
65419;DHT22;52027;50.658;14.004;2022-10-17T06:36:25;22.33;45.51
65419;DHT22;52027;50.658;14.004;2022-10-17T06:38:50;22.37;45.68
65419;DHT22;52027;50.658;14.004;2022-10-17T06:41:16;22.36;45.96
65419;DHT22;52027;50.658;14.004;2022-10-17T06:43:44;22.40;46.00
65419;DHT22;52027;50.658;14.004;2022-10-17T06:46:21;22.40;46.06
65419;DHT22;52027;50.658;14.004;2022-10-17T06:48:51;22.40;46.20
65419;DHT22;52027;50.658;14.004;2022-10-17T06:51:16;22.41;46.28
65419;DHT22;52027;50.658;14.004;2022-10-17T06:53:41;22.44;46.06
65419;DHT22;52027;50.658;14.004;2022-10-17T06:56:09;22.44;46.01
65419;DHT22;52027;50.658;14.004;2022-10-17T06:58:36;22.44;45.97
65419;DHT22;52027;50.658;14.004;2022-10-17T07:01:08;22.47;45.92
65419;DHT22;52027;50.658;14.004;2022-10-17T07:03:34;22.47;45.96
65419;DHT22;52027;50.658;14.004;2022-10-17T07:05:59;22.47;45.94
65419;DHT22;52027;50.658;14.004;2022-10-17T07:08:25;22.48;46.11
65419;DHT22;52027;50.658;14.004;2022-10-17T07:10:51;22.49;46.19
65419;DHT22;52027;50.658;14.004;2022-10-17T07:13:38;22.52;46.11
65419;DHT22;52027;50.658;14.004;2022-10-17T07:16:07;22.54;46.13
65419;DHT22;52027;50.658;14.004;2022-10-17T07:18:32;22.58;46.42
65419;DHT22;52027;50.658;14.004;2022-10-17T07:21:00;22.59;46.30
65419;DHT22;52027;50.658;14.004;2022-10-17T07:23:51;22.64;46.13
65419;DHT22;52027;50.658;14.004;2022-10-17T07:26:17;22.68;46.15
65419;DHT22;52027;50.658;14.004;2022-10-17T07:28:45;22.69;46.04
65419;DHT22;52027;50.658;14.004;2022-10-17T07:31:16;22.72;46.01
65419;DHT22;52027;50.658;14.004;2022-10-17T07:33:42;22.71;45.95
65419;DHT22;52027;50.658;14.004;2022-10-17T07:36:08;22.73;45.98
65419;DHT22;52027;50.658;14.004;2022-10-17T07:38:34;22.71;46.06
65419;DHT22;52027;50.658;14.004;2022-10-17T07:41:01;22.69;45.98
65419;DHT22;52027;50.658;14.004;2022-10-17T07:43:27;22.72;45.88
65419;DHT22;52027;50.658;14.004;2022-10-17T07:45:53;22.71;45.98
65419;DHT22;52027;50.658;14.004;2022-10-17T07:48:21;22.72;45.88
65419;DHT22;52027;50.658;14.004;2022-10-17T07:50:46;22.73;45.95
65419;DHT22;52027;50.658;14.004;2022-10-17T07:53:12;22.73;45.96
65419;DHT22;52027;50.658;14.004;2022-10-17T07:55:39;22.73;45.85
65419;DHT22;52027;50.658;14.004;2022-10-17T07:58:05;22.73;45.97
65419;DHT22;52027;50.658;14.004;2022-10-17T08:00:30;22.76;45.96
65419;DHT22;52027;50.658;14.004;2022-10-17T08:02:55;22.75;45.89
65419;DHT22;52027;50.658;14.004;2022-10-17T08:05:21;22.76;45.97
65419;DHT22;52027;50.658;14.004;2022-10-17T08:07:46;22.73;45.98
65419;DHT22;52027;50.658;14.004;2022-10-17T08:10:12;22.73;46.00
65419;DHT22;52027;50.658;14.004;2022-10-17T08:12:38;22.79;46.00
65419;DHT22;52027;50.658;14.004;2022-10-17T08:15:04;22.75;46.03
65419;DHT22;52027;50.658;14.004;2022-10-17T08:17:30;22.75;46.07
65419;DHT22;52027;50.658;14.004;2022-10-17T08:19:56;22.75;46.22
65419;DHT22;52027;50.658;14.004;2022-10-17T08:22:21;22.75;46.17
65419;DHT22;52027;50.658;14.004;2022-10-17T08:24:46;22.75;46.05
65419;DHT22;52027;50.658;14.004;2022-10-17T08:27:12;22.75;46.09
65419;DHT22;52027;50.658;14.004;2022-10-17T08:29:40;22.76;46.05
65419;DHT22;52027;50.658;14.004;2022-10-17T08:32:06;22.75;46.09
65419;DHT22;52027;50.658;14.004;2022-10-17T08:34:33;22.79;46.18
65419;DHT22;52027;50.658;14.004;2022-10-17T08:36:59;22.82;46.23
65419;DHT22;52027;50.658;14.004;2022-10-17T08:39:25;22.83;46.29
65419;DHT22;52027;50.658;14.004;2022-10-17T08:42:07;22.83;46.13
65419;DHT22;52027;50.658;14.004;2022-10-17T08:47:15;22.83;46.14
65419;DHT22;52027;50.658;14.004;2022-10-17T08:50:11;22.83;46.08
65419;DHT22;52027;50.658;14.004;2022-10-17T08:52:45;22.85;46.05
65419;DHT22;52027;50.658;14.004;2022-10-17T08:55:17;22.86;46.01
65419;DHT22;52027;50.658;14.004;2022-10-17T08:57:46;22.85;46.01
65419;DHT22;52027;50.658;14.004;2022-10-17T09:00:21;22.86;46.01
65419;DHT22;52027;50.658;14.004;2022-10-17T09:03:09;22.88;46.08
65419;DHT22;52027;50.658;14.004;2022-10-17T09:17:24;23.00;46.48
65419;DHT22;52027;50.658;14.004;2022-10-17T09:23:01;23.03;46.56
65419;DHT22;52027;50.658;14.004;2022-10-17T09:25:28;23.07;46.40
65419;DHT22;52027;50.658;14.004;2022-10-17T09:28:09;23.10;46.35
65419;DHT22;52027;50.658;14.004;2022-10-17T09:30:46;23.13;46.25
65419;DHT22;52027;50.658;14.004;2022-10-17T09:33:17;23.14;46.22
65419;DHT22;52027;50.658;14.004;2022-10-17T09:35:43;23.17;46.19
65419;DHT22;52027;50.658;14.004;2022-10-17T09:38:18;23.22;46.04
65419;DHT22;52027;50.658;14.004;2022-10-17T09:40:45;23.23;46.03
65419;DHT22;52027;50.658;14.004;2022-10-17T09:43:13;23.26;46.03
65419;DHT22;52027;50.658;14.004;2022-10-17T09:45:44;23.26;46.06
65419;DHT22;52027;50.658;14.004;2022-10-17T09:50:46;23.30;46.10
65419;DHT22;52027;50.658;14.004;2022-10-17T09:53:17;23.33;46.04
65419;DHT22;52027;50.658;14.004;2022-10-17T09:55:55;23.36;45.98
65419;DHT22;52027;50.658;14.004;2022-10-17T09:58:39;23.36;46.47
65419;DHT22;52027;50.658;14.004;2022-10-17T10:01:37;23.41;46.44
65419;DHT22;52027;50.658;14.004;2022-10-17T10:04:17;23.44;46.69
65419;DHT22;52027;50.658;14.004;2022-10-17T10:07:08;23.46;46.58
65419;DHT22;52027;50.658;14.004;2022-10-17T10:09:45;23.44;46.35
65419;DHT22;52027;50.658;14.004;2022-10-17T10:12:26;23.46;46.69
65419;DHT22;52027;50.658;14.004;2022-10-17T10:14:57;23.47;46.56
65419;DHT22;52027;50.658;14.004;2022-10-17T10:19:59;23.50;46.59
65419;DHT22;52027;50.658;14.004;2022-10-17T10:22:27;23.51;46.62
65419;DHT22;52027;50.658;14.004;2022-10-17T10:27:36;23.55;46.47
65419;DHT22;52027;50.658;14.004;2022-10-17T10:30:23;23.54;46.51
65419;DHT22;52027;50.658;14.004;2022-10-17T10:32:51;23.53;46.59
65419;DHT22;52027;50.658;14.004;2022-10-17T10:35:36;23.50;46.59
65419;DHT22;52027;50.658;14.004;2022-10-17T10:38:06;23.53;46.83
65419;DHT22;52027;50.658;14.004;2022-10-17T10:40:48;23.53;46.79
65419;DHT22;52027;50.658;14.004;2022-10-17T10:43:44;23.53;46.64
65419;DHT22;52027;50.658;14.004;2022-10-17T10:46:31;23.55;46.76
65419;DHT22;52027;50.658;14.004;2022-10-17T10:49:01;23.60;46.68
65419;DHT22;52027;50.658;14.004;2022-10-17T10:54:15;23.61;46.79
65419;DHT22;52027;50.658;14.004;2022-10-17T10:56:49;23.65;46.73
65419;DHT22;52027;50.658;14.004;2022-10-17T10:59:52;23.67;46.60
65419;DHT22;52027;50.658;14.004;2022-10-17T11:02:29;23.67;46.60
65419;DHT22;52027;50.658;14.004;2022-10-17T11:05:15;23.69;46.64
65419;DHT22;52027;50.658;14.004;2022-10-17T11:10:22;23.71;46.58
65419;DHT22;52027;50.658;14.004;2022-10-17T11:15:19;23.69;46.51
65419;DHT22;52027;50.658;14.004;2022-10-17T11:17:56;23.74;46.54
65419;DHT22;52027;50.658;14.004;2022-10-17T11:20:31;23.71;46.57
65419;DHT22;52027;50.658;14.004;2022-10-17T11:23:08;23.68;46.51
65419;DHT22;52027;50.658;14.004;2022-10-17T11:25:37;23.68;46.72
65419;DHT22;52027;50.658;14.004;2022-10-17T11:28:16;23.72;46.81
65419;DHT22;52027;50.658;14.004;2022-10-17T11:30:45;23.72;46.73
65419;DHT22;52027;50.658;14.004;2022-10-17T11:33:19;23.77;47.03
65419;DHT22;52027;50.658;14.004;2022-10-17T11:35:47;23.81;46.91
65419;DHT22;52027;50.658;14.004;2022-10-17T11:40:49;23.84;47.21
65419;DHT22;52027;50.658;14.004;2022-10-17T11:43:19;23.85;47.38
65419;DHT22;52027;50.658;14.004;2022-10-17T11:45:51;23.90;47.07
65419;DHT22;52027;50.658;14.004;2022-10-17T11:48:22;23.95;47.01
65419;DHT22;52027;50.658;14.004;2022-10-17T11:51:21;23.98;47.19
65419;DHT22;52027;50.658;14.004;2022-10-17T11:54:03;23.95;47.19
65419;DHT22;52027;50.658;14.004;2022-10-17T11:56:38;24.01;47.27
65419;DHT22;52027;50.658;14.004;2022-10-17T12:01:56;24.04;47.26
65419;DHT22;52027;50.658;14.004;2022-10-17T12:04:47;24.09;47.20
65419;DHT22;52027;50.658;14.004;2022-10-17T12:07:29;24.09;47.12
65419;DHT22;52027;50.658;14.004;2022-10-17T12:10:26;24.02;47.12
65419;DHT22;52027;50.658;14.004;2022-10-17T12:12:52;24.04;47.24
65419;DHT22;52027;50.658;14.004;2022-10-17T12:17:44;24.06;47.09
65419;DHT22;52027;50.658;14.004;2022-10-17T12:23:13;24.17;47.34
65419;DHT22;52027;50.658;14.004;2022-10-17T12:28:19;24.25;47.93
65419;DHT22;52027;50.658;14.004;2022-10-17T12:31:00;24.27;47.89
65419;DHT22;52027;50.658;14.004;2022-10-17T12:33:53;24.32;47.91
65419;DHT22;52027;50.658;14.004;2022-10-17T12:39:39;24.33;48.12
65419;DHT22;52027;50.658;14.004;2022-10-17T12:46:54;24.39;47.93
65419;DHT22;52027;50.658;14.004;2022-10-17T12:49:22;24.34;48.00
65419;DHT22;52027;50.658;14.004;2022-10-17T12:54:38;24.39;48.30
65419;DHT22;52027;50.658;14.004;2022-10-17T12:57:16;24.41;48.28
65419;DHT22;52027;50.658;14.004;2022-10-17T12:59:42;24.43;48.35
65419;DHT22;52027;50.658;14.004;2022-10-17T13:02:18;24.44;48.22
65419;DHT22;52027;50.658;14.004;2022-10-17T13:04:44;24.46;48.35
65419;DHT22;52027;50.658;14.004;2022-10-17T13:07:20;24.47;48.28
65419;DHT22;52027;50.658;14.004;2022-10-17T13:09:46;24.47;48.29
65419;DHT22;52027;50.658;14.004;2022-10-17T13:12:17;24.50;48.15
65419;DHT22;52027;50.658;14.004;2022-10-17T13:14:44;24.50;48.37
65419;DHT22;52027;50.658;14.004;2022-10-17T13:17:24;24.50;48.52
65419;DHT22;52027;50.658;14.004;2022-10-17T13:19:50;24.46;48.46
65419;DHT22;52027;50.658;14.004;2022-10-17T13:24:47;24.47;48.62
65419;DHT22;52027;50.658;14.004;2022-10-17T13:29:53;24.46;48.73
65419;DHT22;52027;50.658;14.004;2022-10-17T13:32:21;24.47;48.74
65419;DHT22;52027;50.658;14.004;2022-10-17T13:35:03;24.44;48.98
65419;DHT22;52027;50.658;14.004;2022-10-17T13:37:29;24.44;48.84
65419;DHT22;52027;50.658;14.004;2022-10-17T13:39:54;24.46;48.86
65419;DHT22;52027;50.658;14.004;2022-10-17T13:42:25;24.46;48.55
65419;DHT22;52027;50.658;14.004;2022-10-17T13:44:51;24.46;48.72
65419;DHT22;52027;50.658;14.004;2022-10-17T13:47:27;24.47;48.77
65419;DHT22;52027;50.658;14.004;2022-10-17T13:49:53;24.46;48.58
65419;DHT22;52027;50.658;14.004;2022-10-17T13:52:22;24.50;48.50
65419;DHT22;52027;50.658;14.004;2022-10-17T13:54:49;24.46;48.37
65419;DHT22;52027;50.658;14.004;2022-10-17T13:57:29;24.47;48.39
65419;DHT22;52027;50.658;14.004;2022-10-17T14:00:05;24.49;48.56
65419;DHT22;52027;50.658;14.004;2022-10-17T14:02:32;24.49;48.37
65419;DHT22;52027;50.658;14.004;2022-10-17T14:07:58;24.49;48.42
65419;DHT22;52027;50.658;14.004;2022-10-17T14:10:29;24.49;48.42
65419;DHT22;52027;50.658;14.004;2022-10-17T14:12:55;24.47;48.39
65419;DHT22;52027;50.658;14.004;2022-10-17T14:15:26;24.46;48.42
65419;DHT22;52027;50.658;14.004;2022-10-17T14:17:58;24.44;48.23
65419;DHT22;52027;50.658;14.004;2022-10-17T14:20:25;24.47;48.04
65419;DHT22;52027;50.658;14.004;2022-10-17T14:22:54;24.44;47.86
65419;DHT22;52027;50.658;14.004;2022-10-17T14:25:45;24.46;47.97
65419;DHT22;52027;50.658;14.004;2022-10-17T14:33:10;24.41;47.67
65419;DHT22;52027;50.658;14.004;2022-10-17T14:35:36;24.43;47.59
65419;DHT22;52027;50.658;14.004;2022-10-17T14:38:04;24.41;47.60
65419;DHT22;52027;50.658;14.004;2022-10-17T14:40:31;24.40;47.55
65419;DHT22;52027;50.658;14.004;2022-10-17T14:43:00;24.41;47.53
65419;DHT22;52027;50.658;14.004;2022-10-17T14:45:30;24.39;47.43
65419;DHT22;52027;50.658;14.004;2022-10-17T14:48:02;24.37;47.47
65419;DHT22;52027;50.658;14.004;2022-10-17T14:50:30;24.37;47.42
65419;DHT22;52027;50.658;14.004;2022-10-17T14:53:05;24.39;47.40
65419;DHT22;52027;50.658;14.004;2022-10-17T14:55:32;24.34;47.42
65419;DHT22;52027;50.658;14.004;2022-10-17T14:57:58;24.30;47.42
65419;DHT22;52027;50.658;14.004;2022-10-17T15:00:24;24.29;47.50
65419;DHT22;52027;50.658;14.004;2022-10-17T15:02:51;24.29;47.50
65419;DHT22;52027;50.658;14.004;2022-10-17T15:05:18;24.25;47.47
65419;DHT22;52027;50.658;14.004;2022-10-17T15:07:44;24.23;47.47
65419;DHT22;52027;50.658;14.004;2022-10-17T15:10:31;24.22;47.47
65419;DHT22;52027;50.658;14.004;2022-10-17T15:12:57;24.17;47.52
65419;DHT22;52027;50.658;14.004;2022-10-17T15:15:25;24.20;47.74
65419;DHT22;52027;50.658;14.004;2022-10-17T15:17:50;24.17;47.92
65419;DHT22;52027;50.658;14.004;2022-10-17T15:20:16;24.16;47.78
65419;DHT22;52027;50.658;14.004;2022-10-17T15:22:41;24.13;47.72
65419;DHT22;52027;50.658;14.004;2022-10-17T15:25:07;24.15;47.72
65419;DHT22;52027;50.658;14.004;2022-10-17T15:27:33;24.13;47.74
65419;DHT22;52027;50.658;14.004;2022-10-17T15:29:58;24.15;47.68
65419;DHT22;52027;50.658;14.004;2022-10-17T15:32:24;24.13;47.72
65419;DHT22;52027;50.658;14.004;2022-10-17T15:34:49;24.10;47.68
65419;DHT22;52027;50.658;14.004;2022-10-17T15:37:21;24.09;47.61
65419;DHT22;52027;50.658;14.004;2022-10-17T15:39:48;24.06;47.57
65419;DHT22;52027;50.658;14.004;2022-10-17T15:42:17;24.05;47.54
65419;DHT22;52027;50.658;14.004;2022-10-17T15:44:43;24.05;47.59
65419;DHT22;52027;50.658;14.004;2022-10-17T15:47:30;24.04;47.52
65419;DHT22;52027;50.658;14.004;2022-10-17T15:49:57;23.99;47.55
65419;DHT22;52027;50.658;14.004;2022-10-17T15:52:23;24.01;47.59
65419;DHT22;52027;50.658;14.004;2022-10-17T15:54:48;23.98;47.48
65419;DHT22;52027;50.658;14.004;2022-10-17T15:57:20;23.95;47.59
65419;DHT22;52027;50.658;14.004;2022-10-17T15:59:46;23.96;47.45
65419;DHT22;52027;50.658;14.004;2022-10-17T16:02:13;23.95;47.56
65419;DHT22;52027;50.658;14.004;2022-10-17T16:04:39;23.90;47.58
65419;DHT22;52027;50.658;14.004;2022-10-17T16:07:05;23.89;47.63
65419;DHT22;52027;50.658;14.004;2022-10-17T16:09:31;23.84;47.65
65419;DHT22;52027;50.658;14.004;2022-10-17T16:11:57;23.85;47.57
65419;DHT22;52027;50.658;14.004;2022-10-17T16:14:22;23.84;47.61
65419;DHT22;52027;50.658;14.004;2022-10-17T16:16:48;23.82;47.56
65419;DHT22;52027;50.658;14.004;2022-10-17T16:19:13;23.82;47.60
65419;DHT22;52027;50.658;14.004;2022-10-17T16:21:39;23.79;47.59
65419;DHT22;52027;50.658;14.004;2022-10-17T16:24:05;23.78;47.60
65419;DHT22;52027;50.658;14.004;2022-10-17T16:26:31;23.75;47.61
65419;DHT22;52027;50.658;14.004;2022-10-17T16:28:56;23.77;47.65
65419;DHT22;52027;50.658;14.004;2022-10-17T16:31:29;23.72;47.67
65419;DHT22;52027;50.658;14.004;2022-10-17T16:33:56;23.72;47.56
65419;DHT22;52027;50.658;14.004;2022-10-17T16:36:22;23.69;47.61
65419;DHT22;52027;50.658;14.004;2022-10-17T16:38:48;23.69;47.56
65419;DHT22;52027;50.658;14.004;2022-10-17T16:41:25;23.67;47.68
65419;DHT22;52027;50.658;14.004;2022-10-17T16:43:52;23.67;47.61
65419;DHT22;52027;50.658;14.004;2022-10-17T16:53:01;23.58;47.69
65419;DHT22;52027;50.658;14.004;2022-10-17T16:55:28;23.57;47.75
65419;DHT22;52027;50.658;14.004;2022-10-17T16:57:53;23.55;47.62
65419;DHT22;52027;50.658;14.004;2022-10-17T17:00:18;23.53;47.65
65419;DHT22;52027;50.658;14.004;2022-10-17T17:02:46;23.51;47.80
65419;DHT22;52027;50.658;14.004;2022-10-17T17:05:11;23.48;47.74
65419;DHT22;52027;50.658;14.004;2022-10-17T17:07:37;23.51;47.68
65419;DHT22;52027;50.658;14.004;2022-10-17T17:10:02;23.48;47.64
65419;DHT22;52027;50.658;14.004;2022-10-17T17:12:28;23.48;47.61
65419;DHT22;52027;50.658;14.004;2022-10-17T17:14:53;23.46;47.66
65419;DHT22;52027;50.658;14.004;2022-10-17T17:17:18;23.48;47.54